Flight Track Log - Related Links

Times and Time Zones

All times are in EDT time to prevent confusion due to time zone crossing. See the N75ZM flight status page for this flight to view local times or setup timezone preferences in your user account.

Time Position Orientation Groundspeed Altitude Reporting Facility
EDT Latitude Longitude Course Direction KTS MPH feet Rate Location/Type
Mon 07:12:00 PM 34.8394 -85.4376 225° Southwest  Level FlightAware Approximate
Mon 07:13:00 PM 34.8070 -85.4776 225° Southwest  Level FlightAware Approximate
Mon 07:14:00 PM 34.7746 -85.5175 225° Southwest  Level FlightAware Approximate
Mon 07:15:00 PM 34.7421 -85.5574 225° Southwest  Level FlightAware Approximate
Mon 07:16:00 PM 34.7097 -85.5972 225° Southwest  Level FlightAware Approximate
Mon 07:17:00 PM 34.6773 -85.6370 225° Southwest  Level FlightAware Approximate
Mon 07:18:00 PM 34.6454 -85.6775 227° Southwest  Level FlightAware Approximate
Mon 07:19:00 PM 34.6138 -85.7183 227° Southwest  Level FlightAware Approximate
Mon 07:19:04 PM 34.8119 -85.5389 227° Southwest 154 177 6,100  Level Atlanta Center
Mon 07:20:00 PM 34.5822 -85.7591 227° Southwest  Level FlightAware Approximate
Mon 07:20:04 PM 34.7700 -85.5483 190° South 156 180 6,100  Level Atlanta Center
Mon 07:21:00 PM 34.5506 -85.7998 227° Southwest  Level FlightAware Approximate
Mon 07:21:04 PM 34.7261 -85.5603 193° South 156 180 6,100  Level Atlanta Center
Mon 07:22:00 PM 34.5190 -85.8406 227° Southwest  Level FlightAware Approximate
Mon 07:22:04 PM 34.6864 -85.5747 197° South 156 180 6,100  Level Atlanta Center
Mon 07:23:00 PM 34.4874 -85.8812 227° Southwest  Level FlightAware Approximate
Mon 07:23:04 PM 34.6422 -85.5864 192° South 161 185 6,200  Level Atlanta Center
Mon 07:24:00 PM 34.4557 -85.9219 227° Southwest  Level FlightAware Approximate
Mon 07:24:04 PM 34.6003 -85.6008 196° South 166 191 6,200  Level Atlanta Center
Mon 07:25:04 PM 34.5564 -85.6128 193° South 166 191 6,100 -50 Descending Atlanta Center
Mon 07:26:04 PM 34.5125 -85.6269 195° South 166 191 6,100  Level Atlanta Center
Mon 07:27:04 PM 34.4706 -85.6389 193° South 166 191 6,100  Level Atlanta Center
Mon 07:28:04 PM 34.4264 -85.6531 195° South 166 191 6,100 50 Level Atlanta Center
Mon 07:29:04 PM 34.3825 -85.6672 195° South 166 191 6,200  Climbing Atlanta Center
Mon 07:30:04 PM 34.3406 -85.6767 191° South 161 185 6,100 -50 Descending Atlanta Center
Mon 07:31:04 PM 34.2986 -85.6908 196° South 161 185 6,100  Level Atlanta Center
Mon 07:32:04 PM 34.2547 -85.7050 195° South 165 190 6,100  Level Atlanta Center
Mon 07:33:04 PM 34.2106 -85.7192 195° South 165 190 6,100  Level Atlanta Center
Mon 07:34:04 PM 34.1625 -85.7333 194° South 160 184 6,100  Level Atlanta Center
Mon 07:35:04 PM 34.1225 -85.7475 196° South 160 184 6,100  Level Atlanta Center
Mon 07:36:04 PM 34.0786 -85.7617 195° South 165 190 6,100  Level Atlanta Center
Mon 07:37:04 PM 34.0325 -85.7733 192° South 160 184 6,100  Level Atlanta Center
Mon 07:38:04 PM 33.9928 -85.7850 194° South 165 190 6,100  Level Atlanta Center
Mon 07:39:04 PM 33.9486 -85.8017 197° South 165 190 6,100  Level Atlanta Center
Mon 07:40:04 PM 33.9047 -85.8133 192° South 165 190 6,100  Level Atlanta Center
Mon 07:41:04 PM 33.8586 -85.8250 192° South 165 190 6,100  Level Atlanta Center
Mon 07:42:04 PM 33.8144 -85.8414 197° South 165 190 6,100  Level Atlanta Center
Mon 07:43:04 PM 33.7706 -85.8531 192° South 165 190 6,100  Level Atlanta Center
Mon 07:44:04 PM 33.7244 -85.8694 196° South 165 190 6,100  Level Atlanta Center
Mon 07:45:04 PM 33.6844 -85.8811 194° South 165 190 6,100  Level Atlanta Center
Mon 07:46:04 PM 33.6383 -85.8953 194° South 165 190 6,100  Level Atlanta Center
Mon 07:47:04 PM 33.5942 -85.9092 195° South 165 190 6,100  Level Atlanta Center
Mon 07:48:03 PM 33.5481 -85.9231 194° South 159 183 6,100  Level Atlanta Center
Mon 07:49:04 PM 33.5000 -85.9322 189° South 159 183 6,100  Level Atlanta Center
Mon 07:50:04 PM 33.4581 -85.9486 198° South 159 183 6,100  Level Atlanta Center
Mon 07:51:04 PM 33.4119 -85.9625 194° South 159 183 6,100  Level Atlanta Center
Mon 07:52:04 PM 33.3700 -85.9739 193° South 159 183 6,100  Level Atlanta Center
Mon 07:53:04 PM 33.3322 -85.9856 194° South 170 196 6,100  Level Atlanta Center
Mon 07:54:04 PM 33.2903 -85.9994 195° South 164 189 6,100  Level Atlanta Center
Mon 07:55:04 PM 33.2483 -86.0111 193° South 164 189 6,100  Level Atlanta Center
Mon 07:56:04 PM 33.2064 -86.0250 195° South 164 189 6,100  Level Atlanta Center
Mon 07:57:04 PM 33.1622 -86.0364 192° South 164 189 6,100  Level Atlanta Center
Mon 07:58:04 PM 33.1183 -86.0503 195° South 164 189 6,100  Level Atlanta Center
Mon 07:59:04 PM 33.0764 -86.0642 196° South 164 189 6,100  Level Atlanta Center
Mon 08:00:04 PM 33.0322 -86.0756 192° South 164 189 6,100  Level Atlanta Center
Mon 08:01:04 PM 32.9861 -86.0894 194° South 164 189 6,100  Level Atlanta Center
Mon 08:02:04 PM 32.9442 -86.1033 196° South 164 189 6,100  Level Atlanta Center
Mon 08:03:04 PM 32.8981 -86.1169 194° South 164 189 6,100  Level Atlanta Center
Mon 08:04:04 PM 32.8539 -86.1308 195° South 164 189 6,100  Level Atlanta Center
Mon 08:05:04 PM 32.8061 -86.1247 174° South 164 189 6,100  Level Atlanta Center
Mon 08:07:00 PM 32.7250 -86.1513 195° South  Level FlightAware Approximate
Mon 08:14:00 PM 32.4311 -86.2471 195° South  Level FlightAware Approximate
Mon 08:15:00 PM 32.3891 -86.2608 195° South  Level FlightAware Approximate
Mon 08:16:00 PM 32.3471 -86.2744 195° South  Level FlightAware Approximate
Mon 08:17:00 PM 32.3051 -86.2880 195° South  Level FlightAware Approximate
Mon 08:18:00 PM 32.2631 -86.3016 195° South  Level FlightAware Approximate
Mon 08:18:10 PM 32.1922 -86.0422 165° South 169 194 6,100  Level Jacksonville Center
Mon 08:19:00 PM 32.2211 -86.3152 195° South  Level FlightAware Approximate
Mon 08:19:17 PM 32.1400 -86.0356 174° South 170 196 6,100  Level Jacksonville Center
Mon 08:20:00 PM 32.1791 -86.3048 165° South  Level FlightAware Approximate
Mon 08:20:17 PM 32.0900 -86.0289 174° South 172 198 6,100  Level Jacksonville Center
Mon 08:21:00 PM 32.1371 -86.2915 165° South  Level FlightAware Approximate
Mon 08:21:18 PM 32.0444 -86.0222 173° South 172 198 6,100  Level Jacksonville Center
Mon 08:22:00 PM 32.0950 -86.2782 165° South  Level FlightAware Approximate
Mon 08:22:19 PM 31.9944 -86.0158 174° South 171 197 6,100  Level Jacksonville Center
Mon 08:23:00 PM 32.0529 -86.2649 165° South  Level FlightAware Approximate
Mon 08:23:19 PM 31.9486 -86.0092 173° South 173 199 6,100  Level Jacksonville Center
Mon 08:24:20 PM 31.8986 -86.0028 174° South 174 200 6,100  Level Jacksonville Center
Mon 08:25:20 PM 31.8508 -85.9961 173° South 173 199 6,100  Level Jacksonville Center
Mon 08:26:33 PM 31.7925 -85.9894 174° South 174 200 6,100  Level Jacksonville Center
Mon 08:27:34 PM 31.7428 -85.9828 173° South 173 199 6,100  Level Jacksonville Center
Mon 08:28:23 PM 31.7053 -85.9767 172° South 174 200 6,100  Level Jacksonville Center
Mon 08:29:23 PM 31.6553 -85.9703 174° South 173 199 6,100  Level Jacksonville Center
Mon 08:30:24 PM 31.6094 -85.9614 171° South 171 197 6,100  Level Jacksonville Center
Mon 08:31:25 PM 31.5617 -85.9572 176° South 168 193 6,100  Level Jacksonville Center
Mon 08:32:25 PM 31.5139 -85.9508 173° South 166 191 6,100  Level Jacksonville Center
Mon 08:33:38 PM 31.4575 -85.9417 172° South 173 199 6,100  Level Jacksonville Center
Mon 08:34:39 PM 31.4119 -85.9353 173° South 173 199 6,100  Level Jacksonville Center
Mon 08:35:33 PM 31.3661 -85.9289 173° South 170 196 6,100  Level Jacksonville Center
Mon 08:36:40 PM 31.3181 -85.9225 174° South 167 192 6,100  Level Jacksonville Center
Mon 08:37:35 PM 31.2744 -85.9189 176° South 166 191 6,100  Level Jacksonville Center
Mon 08:38:29 PM 31.2328 -85.9125 173° South 167 192 6,100  Level Jacksonville Center
Mon 08:39:36 PM 31.1786 -85.9058 174° South 167 192 6,100  Level Jacksonville Center
Mon 08:40:36 PM 31.1308 -85.8972 171° South 168 193 6,100  Level Jacksonville Center
Mon 08:41:37 PM 31.0872 -85.8908 173° South 167 192 6,100  Level Jacksonville Center
Mon 08:42:38 PM 31.0372 -85.8869 176° South 168 193 6,100  Level Jacksonville Center
Mon 08:43:32 PM 30.9978 -85.8808 172° South 169 194 6,100  Level Jacksonville Center
Mon 08:45:00 PM 30.9339 -85.8700 172° South  Level FlightAware Approximate
Mon 08:52:00 PM 30.6283 -85.8231 173° South  Level FlightAware Approximate
Mon 08:53:00 PM 30.5846 -85.8168 173° South  Level FlightAware Approximate
Mon 08:54:00 PM 30.5409 -85.8105 173° South  Level FlightAware Approximate
Mon 08:55:00 PM 30.4972 -85.8043 173° South  Level FlightAware Approximate
Mon 08:56:00 PM 30.4535 -85.7981 173° South  Level FlightAware Approximate
Mon 08:57:00 PM 30.4098 -85.7918 173° South  Level FlightAware Approximate
Mon 08:58:00 PM 30.3661 -85.7856 173° South  Level FlightAware Approximate
Mon 08:59:00 PM 30.3500 -85.7833 173° South  Level FlightAware Approximate
Mon 09:00:00 PM 30.3582 -85.7956 173° South  Level Estimated
Mon 09:01:00 PM 30.3582 -85.7956 173° South  Level Estimated
Mon 09:02:00 PM 30.3582 -85.7956 173° South  Level Estimated
Mon 09:03:00 PM 30.3582 -85.7956 173° South  Level Estimated
Mon 09:04:00 PM 30.3582 -85.7956 173° South  Level Estimated
Mon 09:05:00 PM 30.3582 -85.7956 173° South  Level Estimated
Mon 09:06:00 PM 30.3582 -85.7956 173° South  Level Estimated
Mon 09:07:00 PM 30.3582 -85.7956 173° South  Level Estimated
Mon 09:08:00 PM 30.3582 -85.7956 173° South  Level Estimated
Mon 09:09:00 PM 30.3582 -85.7956 173° South  Level Estimated
Mon 09:10:00 PM 30.3582 -85.7956 173° South  Level Estimated
Mon 09:11:00 PM 30.3582 -85.7956 173° South  Level Estimated
Mon 09:12:00 PM 30.3582 -85.7956 173° South  Level Estimated
Mon 09:13:00 PM 30.3582 -85.7956 173° South  Level Estimated
Mon 09:14:00 PM 30.3582 -85.7956 173° South  Level Estimated
Mon 09:15:00 PM 30.3582 -85.7956 173° South  Level Estimated

Login

Don't have an account? Register now (free) for customized features, flight alerts, and more!